Time;durP1;ratioP1;P1;durP2;ratioP2;P2;SDS_P1;SDS_P2;PMS_P1;PMS_P2;Temp;Humidity;BMP_temperature;BMP_pressure;BME280_temperature;BME280_humidity;BME280_pressure;Samples;Min_cycle;Max_cycle;Signal;HPM_P1;HPM_P2
2024/02/04 00:02:25;;;;;;;21.70;10.90;;;8.20;99.90;;;;;;5029553;28;20033;-82
2024/02/04 00:05:16;;;;;;;23.98;12.13;;;8.20;99.90;;;;;;5046376;28;20166;-84
2024/02/04 00:08:34;;;;;;;20.52;11.88;;;8.20;99.90;;;;;;5043529;28;20032;-81
2024/02/04 00:11:11;;;;;;;24.50;13.68;;;8.20;99.90;;;;;;5020690;28;20040;-82
2024/02/04 00:14:07;;;;;;;24.58;11.25;;;8.30;99.90;;;;;;5044232;28;20516;-83
2024/02/04 00:16:59;;;;;;;20.65;11.88;;;8.20;99.90;;;;;;5021613;28;20076;-85
2024/02/04 00:19:28;;;;;;;21.52;11.60;;;8.20;99.90;;;;;;5042238;28;20099;-83
2024/02/04 00:22:01;;;;;;;21.77;12.52;;;8.20;99.90;;;;;;5009470;28;20037;-83
2024/02/04 00:25:13;;;;;;;24.33;10.88;;;8.20;99.90;;;;;;5014297;28;20064;-83
2024/02/04 00:28:35;;;;;;;20.05;11.13;;;8.20;99.90;;;;;;4975351;28;20073;-82
2024/02/04 00:31:45;;;;;;;20.63;11.02;;;8.30;99.90;;;;;;4971685;28;20038;-83
2024/02/04 00:34:19;;;;;;;20.85;11.35;;;8.30;99.90;;;;;;4964752;28;20046;-83
2024/02/04 00:36:47;;;;;;;26.63;12.48;;;8.30;99.90;;;;;;5019366;28;20047;-81
2024/02/04 00:39:13;;;;;;;24.67;12.73;;;8.30;99.90;;;;;;5025692;28;20107;-84
2024/02/04 00:41:40;;;;;;;26.50;12.75;;;8.30;99.90;;;;;;5025519;28;20051;-84
2024/02/04 00:44:07;;;;;;;26.80;14.00;;;8.30;99.90;;;;;;5006921;28;20604;-82
2024/02/04 00:46:33;;;;;;;36.75;17.17;;;8.30;99.90;;;;;;5041120;28;20048;-82
2024/02/04 00:49:01;;;;;;;46.60;21.45;;;8.40;99.90;;;;;;5026606;28;20060;-83
2024/02/04 00:51:28;;;;;;;59.40;22.55;;;8.40;99.90;;;;;;5012994;28;20041;-82
2024/02/04 00:53:55;;;;;;;61.17;24.33;;;8.50;99.90;;;;;;5014366;28;20787;-82
2024/02/04 00:56:22;;;;;;;74.57;29.42;;;8.60;99.90;;;;;;5019683;28;20099;-82
2024/02/04 00:58:49;;;;;;;75.10;26.77;;;8.60;99.90;;;;;;5012118;28;20037;-83
2024/02/04 01:01:17;;;;;;;79.25;28.48;;;8.60;99.90;;;;;;5014029;28;20029;-83
2024/02/04 01:03:44;;;;;;;96.60;33.15;;;8.60;99.90;;;;;;5022188;28;20063;-83
2024/02/04 01:06:11;;;;;;;96.65;33.42;;;8.60;99.90;;;;;;5038773;28;20076;-83
2024/02/04 01:08:38;;;;;;;129.32;37.53;;;8.60;99.90;;;;;;5043966;28;20045;-82
2024/02/04 01:11:05;;;;;;;131.90;36.67;;;8.70;99.90;;;;;;5009557;28;20037;-83
2024/02/04 01:13:33;;;;;;;120.43;40.70;;;8.70;99.90;;;;;;5006961;28;20067;-85
2024/02/04 01:16:00;;;;;;;118.63;42.75;;;8.70;99.90;;;;;;5024845;28;20094;-83
2024/02/04 01:18:28;;;;;;;139.82;46.78;;;8.80;99.90;;;;;;5023026;28;20500;-84
2024/02/04 01:20:55;;;;;;;137.10;47.95;;;8.90;99.90;;;;;;5011982;28;20037;-89
2024/02/04 01:23:22;;;;;;;112.22;45.10;;;9.00;99.90;;;;;;5030659;28;20045;-84
2024/02/04 01:25:49;;;;;;;143.80;52.05;;;9.10;99.90;;;;;;5014455;28;20049;-84
2024/02/04 01:28:16;;;;;;;144.30;52.47;;;9.10;99.90;;;;;;5014733;28;20055;-86
2024/02/04 01:30:43;;;;;;;163.57;56.13;;;9.10;99.90;;;;;;5024009;28;20120;-84
2024/02/04 01:33:11;;;;;;;148.80;55.40;;;9.20;99.90;;;;;;5027827;28;20045;-83
2024/02/04 01:35:38;;;;;;;139.07;49.13;;;9.20;99.90;;;;;;5009853;28;20060;-83
2024/02/04 01:38:05;;;;;;;136.13;49.53;;;9.20;99.90;;;;;;5007232;28;20048;-84
2024/02/04 01:40:32;;;;;;;124.47;46.35;;;9.20;99.90;;;;;;5007160;28;20049;-83
2024/02/04 01:43:00;;;;;;;129.23;47.58;;;9.20;99.90;;;;;;5020960;28;20033;-84
2024/02/04 01:45:27;;;;;;;116.75;44.13;;;9.20;99.90;;;;;;5019354;28;20068;-85
2024/02/04 01:47:54;;;;;;;114.38;42.42;;;9.20;99.90;;;;;;5025816;28;20517;-83
2024/02/04 01:50:23;;;;;;;121.85;44.92;;;9.20;99.90;;;;;;5007853;28;20509;-84
2024/02/04 01:52:51;;;;;;;118.38;44.92;;;9.20;99.90;;;;;;5027877;28;20057;-82
2024/02/04 01:55:20;;;;;;;98.40;37.00;;;9.20;99.90;;;;;;5021067;28;20462;-84
2024/02/04 01:57:49;;;;;;;101.78;40.63;;;9.20;99.90;;;;;;5027214;28;20049;-82
2024/02/04 02:00:18;;;;;;;102.90;37.88;;;9.20;99.90;;;;;;5018998;28;20045;-82
2024/02/04 02:02:49;;;;;;;96.45;35.35;;;9.20;99.90;;;;;;5024728;28;20083;-83
2024/02/04 02:05:18;;;;;;;103.75;40.40;;;9.20;99.90;;;;;;5017364;28;20152;-83
2024/02/04 02:07:50;;;;;;;103.68;39.70;;;9.20;99.90;;;;;;5020791;28;20041;-81
2024/02/04 02:10:20;;;;;;;99.53;41.67;;;9.20;99.90;;;;;;5021372;28;20080;-82
2024/02/04 02:13:06;;;;;;;90.05;37.08;;;9.20;99.90;;;;;;5023007;28;20044;-83
2024/02/04 02:15:40;;;;;;;95.65;38.50;;;9.20;99.90;;;;;;5020642;28;20053;-80
2024/02/04 02:18:22;;;;;;;96.32;36.72;;;9.20;99.90;;;;;;5023158;28;20045;-83
2024/02/04 02:21:28;;;;;;;88.38;34.90;;;9.20;99.90;;;;;;5006571;28;20049;-81
2024/02/04 02:24:14;;;;;;;74.05;32.30;;;9.20;99.90;;;;;;5035825;28;20611;-82
2024/02/04 02:26:43;;;;;;;79.75;32.55;;;9.20;99.90;;;;;;5020920;28;20689;-81
2024/02/04 02:29:11;;;;;;;72.80;34.10;;;9.20;99.90;;;;;;5004328;28;20037;-83
2024/02/04 02:31:40;;;;;;;69.93;31.42;;;9.20;99.90;;;;;;5025546;28;20138;-81
2024/02/04 02:34:16;;;;;;;74.43;34.00;;;9.20;99.90;;;;;;5006137;28;20053;-81
2024/02/04 02:37:12;;;;;;;62.97;29.13;;;9.20;99.90;;;;;;5007566;28;20032;-83
2024/02/04 02:39:47;;;;;;;74.80;32.30;;;9.20;99.90;;;;;;5011178;28;20052;-81
2024/02/04 02:42:17;;;;;;;55.78;25.02;;;9.20;99.90;;;;;;5012593;28;20045;-81
2024/02/04 02:44:46;;;;;;;59.83;29.30;;;9.20;99.90;;;;;;5040993;28;20038;-81
2024/02/04 02:47:15;;;;;;;61.50;27.30;;;9.20;99.90;;;;;;5019317;28;20075;-81
2024/02/04 02:49:42;;;;;;;51.83;23.35;;;9.20;99.90;;;;;;5029106;28;20142;-82
2024/02/04 02:52:09;;;;;;;62.50;28.05;;;9.20;99.90;;;;;;5046253;28;20742;-84
2024/02/04 02:54:36;;;;;;;57.65;25.75;;;9.20;99.90;;;;;;5009274;28;20045;-82
2024/02/04 03:00:55;;;;;;;42.95;20.45;;;9.20;99.90;;;;;;5023961;28;20064;-81
2024/02/04 03:07:18;;;;;;;40.85;18.02;;;9.20;99.90;;;;;;5026163;28;20049;-81
2024/02/04 03:11:30;;;;;;;47.35;21.73;;;9.20;99.90;;;;;;5037840;28;20680;-83
2024/02/04 03:15:07;;;;;;;46.22;19.42;;;9.20;99.90;;;;;;5021345;28;20040;-81
2024/02/04 03:17:35;;;;;;;45.78;20.08;;;9.10;99.90;;;;;;4941322;28;20505;-82
2024/02/04 03:20:02;;;;;;;46.30;19.45;;;9.20;99.90;;;;;;4939847;28;20146;-84
2024/02/04 03:22:29;;;;;;;35.20;15.82;;;9.10;99.90;;;;;;4965375;28;20201;-83
2024/02/04 03:24:55;;;;;;;19.70;8.68;;;9.10;99.90;;;;;;4960011;28;20054;-84
2024/02/04 03:27:22;;;;;;;17.35;8.75;;;9.20;99.90;;;;;;4974141;28;20472;-83
2024/02/04 03:29:49;;;;;;;19.42;8.95;;;9.10;99.90;;;;;;4999447;28;20100;-84
2024/02/04 03:32:16;;;;;;;12.60;5.95;;;9.10;99.90;;;;;;4981025;28;20050;-84
2024/02/04 03:34:43;;;;;;;10.48;5.28;;;9.20;99.90;;;;;;4978363;28;20050;-84
2024/02/04 03:37:11;;;;;;;11.55;4.53;;;9.20;99.90;;;;;;4972010;28;20047;-83
2024/02/04 03:39:38;;;;;;;8.43;4.15;;;9.20;99.90;;;;;;4993241;28;20152;-83
2024/02/04 03:42:05;;;;;;;8.95;3.55;;;9.20;99.90;;;;;;4960645;28;20108;-83
2024/02/04 03:44:32;;;;;;;6.82;2.60;;;9.20;99.90;;;;;;4962462;28;20046;-83
2024/02/04 03:46:59;;;;;;;9.98;4.57;;;9.20;99.90;;;;;;4991289;28;20053;-83
2024/02/04 03:49:26;;;;;;;12.00;6.18;;;9.20;99.90;;;;;;4972138;28;20545;-83
2024/02/04 03:51:53;;;;;;;9.18;5.00;;;9.20;99.90;;;;;;4979709;28;20054;-84
2024/02/04 03:54:20;;;;;;;12.43;6.13;;;9.10;99.90;;;;;;4965908;28;20514;-84
2024/02/04 03:56:47;;;;;;;15.13;8.30;;;9.20;99.90;;;;;;4966932;28;20592;-82
2024/02/04 03:59:14;;;;;;;21.58;11.13;;;9.10;99.90;;;;;;4952250;28;20510;-82
2024/02/04 04:01:50;;;;;;;21.33;10.35;;;9.10;99.90;;;;;;4962356;28;20638;-83
2024/02/04 04:04:17;;;;;;;20.02;10.85;;;9.10;99.90;;;;;;4970082;28;20324;-83
2024/02/04 04:06:45;;;;;;;23.15;12.27;;;9.10;99.90;;;;;;4949227;28;20629;-83
2024/02/04 04:09:12;;;;;;;16.98;10.65;;;9.10;99.90;;;;;;4950416;28;20054;-83
2024/02/04 04:11:39;;;;;;;16.40;10.20;;;9.00;99.90;;;;;;4954826;28;20758;-84
2024/02/04 04:14:06;;;;;;;18.02;10.20;;;9.00;99.90;;;;;;4967170;28;20267;-85
2024/02/04 04:16:33;;;;;;;17.02;9.95;;;9.00;99.90;;;;;;4947866;28;20050;-82
2024/02/04 04:18:59;;;;;;;16.88;9.55;;;8.90;99.90;;;;;;4966935;28;20098;-84
2024/02/04 04:21:29;;;;;;;18.08;10.57;;;8.90;99.90;;;;;;4979175;28;20461;-82
2024/02/04 04:23:56;;;;;;;20.90;12.10;;;8.90;99.90;;;;;;4998058;28;20107;-82
2024/02/04 04:26:24;;;;;;;28.65;12.77;;;8.80;99.90;;;;;;5010029;28;20175;-83
2024/02/04 04:28:51;;;;;;;25.42;13.32;;;8.90;99.90;;;;;;5013900;28;20293;-83
2024/02/04 04:31:17;;;;;;;23.23;12.02;;;8.80;99.90;;;;;;4977182;28;20356;-82
2024/02/04 04:33:44;;;;;;;23.02;12.07;;;8.80;99.90;;;;;;5002979;28;20377;-84
2024/02/04 04:36:11;;;;;;;23.88;13.07;;;8.80;99.90;;;;;;5014885;28;20038;-83
2024/02/04 04:38:38;;;;;;;26.20;13.48;;;8.80;99.90;;;;;;4997151;28;20598;-85
2024/02/04 04:41:04;;;;;;;23.15;11.90;;;8.80;99.90;;;;;;4981102;28;20049;-84
2024/02/04 04:43:32;;;;;;;19.00;11.55;;;8.80;99.90;;;;;;4997091;28;20128;-85
2024/02/04 04:46:01;;;;;;;24.65;13.52;;;8.80;99.90;;;;;;5013507;28;20099;-83
2024/02/04 04:48:28;;;;;;;26.27;14.13;;;8.80;99.90;;;;;;4997933;28;20168;-83
2024/02/04 04:50:54;;;;;;;29.50;13.93;;;8.80;99.90;;;;;;4995656;28;20470;-84
2024/02/04 04:53:22;;;;;;;24.02;12.73;;;8.80;99.90;;;;;;5012099;28;20052;-84
2024/02/04 04:55:48;;;;;;;24.48;12.73;;;8.80;99.90;;;;;;5011710;28;20601;-83
2024/02/04 04:58:15;;;;;;;22.42;12.15;;;8.80;99.90;;;;;;4999241;28;20057;-83
2024/02/04 05:00:42;;;;;;;22.60;12.02;;;8.80;99.90;;;;;;5006922;28;20199;-83
2024/02/04 05:03:09;;;;;;;24.23;11.38;;;8.80;99.90;;;;;;5016078;28;20045;-85
2024/02/04 05:05:35;;;;;;;24.17;10.98;;;8.90;99.90;;;;;;5013676;28;20452;-83
2024/02/04 05:08:02;;;;;;;24.98;11.43;;;8.90;99.90;;;;;;5000882;28;20050;-84
2024/02/04 05:10:29;;;;;;;31.27;15.20;;;8.90;99.90;;;;;;4991225;28;20050;-84
2024/02/04 05:12:56;;;;;;;32.45;15.40;;;8.90;99.90;;;;;;4993051;28;20063;-83
2024/02/04 05:15:24;;;;;;;28.05;15.55;;;8.90;99.90;;;;;;4992405;28;20053;-83
2024/02/04 05:17:51;;;;;;;29.75;15.27;;;8.80;99.90;;;;;;4983188;28;20276;-82
2024/02/04 05:20:18;;;;;;;33.47;16.42;;;8.80;99.90;;;;;;4994177;28;20049;-82
2024/02/04 05:22:45;;;;;;;31.05;15.48;;;8.90;99.90;;;;;;4996891;28;20050;-83
2024/02/04 05:25:11;;;;;;;39.25;16.38;;;8.90;99.90;;;;;;4993873;28;20037;-85
2024/02/04 05:27:38;;;;;;;44.72;17.95;;;8.90;99.90;;;;;;4996281;28;20042;-82
2024/02/04 05:30:09;;;;;;;42.08;19.48;;;8.90;99.90;;;;;;5013679;28;20053;-84
2024/02/04 05:32:35;;;;;;;39.78;19.27;;;8.90;99.90;;;;;;5007941;28;20042;-83
2024/02/04 05:35:03;;;;;;;45.03;21.70;;;8.90;99.90;;;;;;4979198;28;20489;-84
2024/02/04 05:37:30;;;;;;;50.78;21.05;;;8.90;99.90;;;;;;4980691;28;20060;-84
2024/02/04 05:39:57;;;;;;;49.42;20.85;;;9.00;99.90;;;;;;5001795;28;20076;-83
2024/02/04 05:42:23;;;;;;;60.35;22.75;;;9.00;99.90;;;;;;4984593;28;20380;-83
2024/02/04 05:44:50;;;;;;;48.00;20.00;;;9.00;99.90;;;;;;4990211;28;20053;-83
2024/02/04 05:47:17;;;;;;;50.17;22.10;;;9.00;99.90;;;;;;4979583;28;20037;-82
2024/02/04 05:49:44;;;;;;;43.30;19.75;;;9.00;99.90;;;;;;4976755;28;20050;-82
2024/02/04 05:52:12;;;;;;;48.33;19.30;;;9.00;99.90;;;;;;4992710;28;20050;-82
2024/02/04 05:54:39;;;;;;;53.10;23.38;;;8.90;99.90;;;;;;4994625;28;20253;-82
2024/02/04 05:57:06;;;;;;;53.55;23.83;;;9.00;99.90;;;;;;5006319;28;20048;-81
2024/02/04 05:59:34;;;;;;;49.15;22.70;;;9.00;99.90;;;;;;4996129;28;20620;-83
2024/02/04 06:02:00;;;;;;;56.67;23.85;;;8.90;99.90;;;;;;4979030;28;20050;-84
2024/02/04 06:04:28;;;;;;;62.70;26.98;;;8.90;99.90;;;;;;4991938;28;20053;-82
2024/02/04 06:06:55;;;;;;;48.00;22.23;;;9.00;99.90;;;;;;5003886;28;20042;-82
2024/02/04 06:09:22;;;;;;;57.10;25.15;;;8.90;99.90;;;;;;5006416;28;20078;-82
2024/02/04 06:11:49;;;;;;;59.63;25.10;;;8.90;99.90;;;;;;5021532;28;20113;-84
2024/02/04 06:14:15;;;;;;;61.00;27.10;;;9.00;99.90;;;;;;5001300;28;20055;-83
2024/02/04 06:16:42;;;;;;;61.60;26.38;;;8.90;99.90;;;;;;4980404;28;20046;-83
2024/02/04 06:19:11;;;;;;;61.17;27.75;;;8.90;99.90;;;;;;5010161;28;20038;-83
2024/02/04 06:21:38;;;;;;;66.57;29.08;;;8.90;99.90;;;;;;4994598;28;20201;-83
2024/02/04 06:24:05;;;;;;;74.63;29.02;;;8.90;99.90;;;;;;4992808;28;20065;-83
2024/02/04 06:26:38;;;;;;;66.63;26.92;;;8.90;99.90;;;;;;4978063;28;20057;-81
2024/02/04 06:29:05;;;;;;;59.78;24.95;;;8.90;99.90;;;;;;4992734;28;20456;-84
2024/02/04 06:31:31;;;;;;;70.45;27.33;;;8.90;99.90;;;;;;4981292;28;20054;-86
2024/02/04 06:33:58;;;;;;;75.07;31.70;;;8.90;99.90;;;;;;5015739;28;20285;-84
2024/02/04 06:36:25;;;;;;;85.78;33.30;;;8.90;99.90;;;;;;4987893;28;20140;-84
2024/02/04 06:38:53;;;;;;;86.50;33.00;;;8.90;99.90;;;;;;5020507;28;20069;-84
2024/02/04 06:41:20;;;;;;;100.63;39.88;;;8.90;99.90;;;;;;4986803;28;20050;-84
2024/02/04 06:43:48;;;;;;;94.90;35.40;;;8.90;99.90;;;;;;4982227;28;20049;-83
2024/02/04 06:46:28;;;;;;;52.10;25.75;;;8.90;99.90;;;;;;4993190;28;20053;-84
2024/02/04 06:48:55;;;;;;;55.20;23.88;;;8.80;99.90;;;;;;4994821;28;20053;-82
2024/02/04 06:51:22;;;;;;;67.50;27.13;;;8.80;99.90;;;;;;4997908;28;20055;-84
2024/02/04 06:53:50;;;;;;;73.13;30.35;;;8.80;99.90;;;;;;5000609;28;20034;-84
2024/02/04 06:56:17;;;;;;;75.13;30.88;;;8.90;99.90;;;;;;5016282;28;20025;-83
2024/02/04 06:58:44;;;;;;;76.75;31.40;;;8.90;99.90;;;;;;5015645;28;20056;-84
2024/02/04 07:01:11;;;;;;;70.50;31.33;;;8.90;99.90;;;;;;5015761;28;20048;-82
2024/02/04 07:03:39;;;;;;;84.03;30.70;;;8.90;99.90;;;;;;4984343;28;20281;-83
2024/02/04 07:06:07;;;;;;;88.43;36.75;;;8.90;99.90;;;;;;4983549;28;20075;-84
2024/02/04 07:08:34;;;;;;;84.47;35.25;;;8.90;99.90;;;;;;4975257;28;20058;-83
2024/02/04 07:11:01;;;;;;;76.47;32.15;;;8.90;99.90;;;;;;4986140;28;20037;-82
2024/02/04 07:13:28;;;;;;;68.18;31.52;;;8.90;99.90;;;;;;5003737;28;20049;-83
2024/02/04 07:15:57;;;;;;;72.53;30.70;;;8.90;99.90;;;;;;4977686;28;20060;-82
2024/02/04 07:18:27;;;;;;;77.93;32.25;;;8.90;99.90;;;;;;5007732;28;20049;-84
2024/02/04 07:20:56;;;;;;;82.78;33.83;;;8.90;99.90;;;;;;4994778;28;20069;-83
2024/02/04 07:23:23;;;;;;;100.22;40.38;;;8.90;99.90;;;;;;5011962;28;20284;-84
2024/02/04 07:25:50;;;;;;;86.63;37.50;;;8.90;99.90;;;;;;4999080;28;20046;-82
2024/02/04 07:28:16;;;;;;;67.82;29.60;;;8.90;99.90;;;;;;4990844;28;20773;-84
2024/02/04 07:30:46;;;;;;;74.47;32.47;;;8.90;99.90;;;;;;4985421;28;20145;-82
2024/02/04 07:33:27;;;;;;;80.32;36.03;;;8.90;99.90;;;;;;4994801;28;20139;-81
2024/02/04 07:35:58;;;;;;;75.65;32.47;;;8.90;99.90;;;;;;4980773;28;20042;-82
2024/02/04 07:38:29;;;;;;;75.13;35.42;;;8.90;99.90;;;;;;5010135;28;20427;-82
2024/02/04 07:40:58;;;;;;;78.35;31.45;;;8.90;99.90;;;;;;5011752;28;20054;-82
2024/02/04 07:43:25;;;;;;;74.78;34.42;;;8.90;99.90;;;;;;4970473;28;20053;-82
2024/02/04 07:45:59;;;;;;;90.65;39.45;;;8.90;99.90;;;;;;4989907;28;20312;-82
2024/02/04 07:48:33;;;;;;;75.93;34.70;;;8.90;99.90;;;;;;4989730;28;20161;-81
2024/02/04 07:51:02;;;;;;;79.95;35.92;;;8.90;99.90;;;;;;4980244;28;20069;-82
2024/02/04 07:53:29;;;;;;;96.30;42.67;;;8.90;99.90;;;;;;4979918;28;20194;-82
2024/02/04 07:55:59;;;;;;;104.28;42.35;;;8.90;99.90;;;;;;4991172;28;20049;-81
2024/02/04 07:58:37;;;;;;;103.35;43.35;;;8.90;99.90;;;;;;4965885;28;20048;-82
2024/02/04 08:01:04;;;;;;;108.32;45.13;;;8.90;99.90;;;;;;4987309;28;20141;-82
2024/02/04 08:03:31;;;;;;;108.70;48.47;;;9.00;99.90;;;;;;5014348;28;20066;-82
2024/02/04 08:06:04;;;;;;;113.55;49.72;;;9.00;99.90;;;;;;4978500;28;20129;-82
2024/02/04 08:08:37;;;;;;;104.85;46.58;;;9.00;99.90;;;;;;4977237;28;20046;-82
2024/02/04 08:11:06;;;;;;;115.00;47.75;;;9.00;99.90;;;;;;4986291;28;20050;-82
2024/02/04 08:13:34;;;;;;;112.05;47.30;;;9.00;99.90;;;;;;5000315;28;20041;-82
2024/02/04 08:16:04;;;;;;;90.78;41.28;;;9.00;99.90;;;;;;4974492;28;20711;-81
2024/02/04 08:18:31;;;;;;;99.90;43.53;;;9.00;99.90;;;;;;5008278;28;20548;-82
2024/02/04 08:20:58;;;;;;;96.93;42.85;;;9.00;99.90;;;;;;5003708;28;20062;-81
2024/02/04 08:23:25;;;;;;;97.20;45.88;;;9.00;99.90;;;;;;4997666;28;20057;-82
2024/02/04 08:25:59;;;;;;;107.13;48.63;;;9.10;99.90;;;;;;4983549;28;20127;-81
2024/02/04 08:28:29;;;;;;;108.40;46.83;;;9.10;99.90;;;;;;5014312;28;20125;-82
2024/02/04 08:30:58;;;;;;;94.35;45.33;;;9.10;99.90;;;;;;4983271;28;20137;-82
2024/02/04 08:33:25;;;;;;;101.72;47.42;;;9.10;99.90;;;;;;4996268;28;20066;-82
2024/02/04 08:35:52;;;;;;;78.28;35.70;;;9.10;99.90;;;;;;4994683;28;20053;-82
2024/02/04 08:38:18;;;;;;;86.75;42.10;;;9.10;99.90;;;;;;5011618;28;20034;-83
2024/02/04 08:40:45;;;;;;;80.45;39.45;;;9.10;99.90;;;;;;5017498;28;20073;-82
2024/02/04 08:43:12;;;;;;;72.53;36.13;;;9.10;99.90;;;;;;5003691;28;20194;-82
2024/02/04 08:45:39;;;;;;;72.82;35.67;;;9.10;99.90;;;;;;5008549;28;20697;-86
2024/02/04 08:48:06;;;;;;;56.10;27.27;;;9.10;99.90;;;;;;4995465;28;20132;-86
2024/02/04 08:50:34;;;;;;;50.08;21.88;;;9.00;99.90;;;;;;4996955;28;20096;-85
2024/02/04 08:53:01;;;;;;;33.28;16.13;;;8.90;99.90;;;;;;5001573;28;20517;-85
2024/02/04 08:55:28;;;;;;;38.42;18.35;;;8.70;99.90;;;;;;4984786;28;20062;-87
2024/02/04 08:57:56;;;;;;;40.75;18.40;;;8.60;99.90;;;;;;4984107;28;20420;-85
2024/02/04 09:00:23;;;;;;;31.65;15.93;;;8.60;99.90;;;;;;5015215;28;20052;-85
2024/02/04 09:02:50;;;;;;;37.75;16.58;;;8.60;99.90;;;;;;4993746;28;20161;-84
2024/02/04 09:05:18;;;;;;;28.73;15.18;;;8.50;99.90;;;;;;5008856;28;20036;-83
2024/02/04 09:07:48;;;;;;;34.35;16.48;;;8.50;99.90;;;;;;5028815;28;20204;-83
2024/02/04 09:10:15;;;;;;;35.50;15.13;;;8.40;99.90;;;;;;5023860;28;20038;-84
2024/02/04 09:12:42;;;;;;;32.38;16.40;;;8.30;99.90;;;;;;5010784;28;20034;-84
2024/02/04 09:15:09;;;;;;;36.97;16.75;;;8.20;99.90;;;;;;4997589;28;20106;-87
2024/02/04 09:17:36;;;;;;;36.95;14.48;;;8.20;99.90;;;;;;5011958;28;20033;-86
2024/02/04 09:20:03;;;;;;;41.65;18.15;;;8.10;99.90;;;;;;5014824;28;20030;-86
2024/02/04 09:22:31;;;;;;;31.73;14.65;;;8.10;99.90;;;;;;4998256;28;20048;-85
2024/02/04 09:24:57;;;;;;;35.28;16.17;;;8.10;99.90;;;;;;5004582;28;20050;-84
2024/02/04 09:27:27;;;;;;;30.67;14.85;;;8.10;99.90;;;;;;5006887;28;20038;-86
2024/02/04 09:29:55;;;;;;;28.42;13.38;;;8.00;99.90;;;;;;4986353;28;20050;-85
2024/02/04 09:32:25;;;;;;;32.88;15.20;;;8.00;99.90;;;;;;4982379;28;20053;-85
2024/02/04 09:34:53;;;;;;;35.20;15.68;;;8.00;99.90;;;;;;4995951;28;20069;-84
2024/02/04 09:37:25;;;;;;;38.00;16.10;;;8.10;99.90;;;;;;5002839;28;20131;-85
2024/02/04 09:39:54;;;;;;;36.88;16.25;;;8.10;99.90;;;;;;5017644;28;20512;-84
2024/02/04 09:42:27;;;;;;;41.22;16.92;;;8.10;99.90;;;;;;4976718;28;20050;-85
2024/02/04 09:44:55;;;;;;;32.53;15.38;;;8.00;99.90;;;;;;4990665;28;20070;-84
2024/02/04 09:47:23;;;;;;;35.10;14.90;;;8.00;99.90;;;;;;4983481;28;20045;-85
2024/02/04 09:49:55;;;;;;;28.33;14.88;;;8.00;99.90;;;;;;4987874;28;20433;-82
2024/02/04 09:52:33;;;;;;;28.70;13.00;;;8.00;99.90;;;;;;4989572;28;20366;-82
2024/02/04 09:55:03;;;;;;;26.45;13.90;;;8.00;99.90;;;;;;5001889;28;20050;-83
2024/02/04 09:57:32;;;;;;;22.90;12.63;;;8.00;99.90;;;;;;5003158;28;20048;-83
2024/02/04 09:59:59;;;;;;;29.83;12.77;;;8.00;99.90;;;;;;4998131;28;20061;-82
2024/02/04 10:02:27;;;;;;;29.63;14.35;;;8.00;99.90;;;;;;5015606;28;20049;-82
2024/02/04 10:04:56;;;;;;;28.80;13.90;;;8.00;99.90;;;;;;4994192;28;20322;-83
2024/02/04 10:07:24;;;;;;;23.98;11.77;;;8.00;99.90;;;;;;4977599;28;20480;-84
2024/02/04 10:09:53;;;;;;;25.92;11.65;;;8.00;99.90;;;;;;5013504;28;20050;-82
2024/02/04 10:12:20;;;;;;;20.02;10.30;;;8.00;99.90;;;;;;4986139;28;20045;-82
2024/02/04 10:14:49;;;;;;;22.35;12.40;;;8.00;99.90;;;;;;4965190;28;20293;-83
2024/02/04 10:17:17;;;;;;;18.77;12.05;;;8.00;99.90;;;;;;4988008;28;20489;-81
2024/02/04 10:19:46;;;;;;;23.00;11.38;;;8.00;99.90;;;;;;5003306;28;20342;-84
2024/02/04 10:22:16;;;;;;;23.15;10.45;;;8.00;99.90;;;;;;5001592;28;20041;-82
2024/02/04 10:24:48;;;;;;;30.70;12.90;;;8.00;99.90;;;;;;4993476;28;20324;-82
2024/02/04 10:27:15;;;;;;;21.02;12.18;;;8.00;99.90;;;;;;4964291;28;20108;-82
2024/02/04 10:29:56;;;;;;;21.92;10.10;;;8.00;99.90;;;;;;4985686;28;20063;-84
2024/02/04 10:32:24;;;;;;;20.13;11.07;;;8.10;99.90;;;;;;4981016;28;20137;-82
2024/02/04 10:34:55;;;;;;;18.65;10.32;;;8.00;99.90;;;;;;4985046;28;20047;-83
2024/02/04 10:37:22;;;;;;;21.52;10.82;;;8.10;99.90;;;;;;5011122;28;20128;-83
2024/02/04 10:39:52;;;;;;;21.48;11.80;;;8.00;99.90;;;;;;5010155;28;20064;-81
2024/02/04 10:42:24;;;;;;;24.75;12.90;;;8.00;99.90;;;;;;5006964;28;20054;-82
2024/02/04 10:44:53;;;;;;;20.77;11.57;;;8.10;99.90;;;;;;4990253;28;20604;-82
2024/02/04 10:47:24;;;;;;;27.48;12.68;;;8.10;99.90;;;;;;5005423;28;20045;-82
2024/02/04 10:49:53;;;;;;;26.83;14.77;;;8.10;99.90;;;;;;4993309;28;20061;-82
2024/02/04 10:52:22;;;;;;;25.23;13.45;;;8.10;99.90;;;;;;4969525;28;20162;-83
2024/02/04 10:54:50;;;;;;;26.80;14.07;;;8.20;99.90;;;;;;4977254;28;20497;-82
2024/02/04 10:57:25;;;;;;;25.33;13.40;;;8.20;99.90;;;;;;4983241;28;20101;-83
2024/02/04 10:59:54;;;;;;;31.40;13.68;;;8.20;99.90;;;;;;5006900;28;20050;-82
2024/02/04 11:02:23;;;;;;;28.27;15.43;;;8.30;99.90;;;;;;4980883;28;20048;-83
2024/02/04 11:04:51;;;;;;;30.25;15.95;;;8.30;99.90;;;;;;4995339;23;20030;-75
2024/02/04 11:07:20;;;;;;;31.95;14.80;;;8.30;99.90;;;;;;5024823;28;20498;-78
2024/02/04 11:09:49;;;;;;;28.77;15.02;;;8.30;99.90;;;;;;5000039;28;21665;-77
2024/02/04 11:12:19;;;;;;;31.73;15.63;;;8.40;99.90;;;;;;5013471;28;20049;-78
2024/02/04 11:14:54;;;;;;;26.88;13.93;;;8.40;99.90;;;;;;5008750;28;20045;-77
2024/02/04 11:17:30;;;;;;;26.92;15.73;;;8.40;99.90;;;;;;4997345;28;20128;-77
2024/02/04 11:20:35;;;;;;;25.67;13.68;;;8.40;99.90;;;;;;5001724;28;20125;-77
2024/02/04 11:23:30;;;;;;;30.98;14.77;;;8.50;99.90;;;;;;4988665;28;20050;-77
2024/02/04 11:25:58;;;;;;;30.45;15.60;;;8.50;99.90;;;;;;4999977;28;20516;-77
2024/02/04 11:28:26;;;;;;;29.30;15.75;;;8.50;99.90;;;;;;5012818;28;20540;-76
2024/02/04 11:30:55;;;;;;;26.20;14.90;;;8.60;99.90;;;;;;4999907;28;20634;-75
2024/02/04 11:33:22;;;;;;;30.35;16.13;;;8.50;99.90;;;;;;4987287;28;20045;-76
2024/02/04 11:36:12;;;;;;;31.23;13.90;;;8.50;99.90;;;;;;5013157;28;20139;-77
2024/02/04 11:38:40;;;;;;;25.48;14.13;;;8.60;99.90;;;;;;5005479;28;20044;-76
2024/02/04 11:41:08;;;;;;;29.50;15.02;;;8.60;99.90;;;;;;4985827;28;20049;-77
2024/02/04 11:43:37;;;;;;;21.35;13.23;;;8.60;99.90;;;;;;4980155;28;20094;-76
2024/02/04 11:46:04;;;;;;;24.15;14.80;;;8.60;99.90;;;;;;4997073;28;20540;-76
2024/02/04 11:48:36;;;;;;;21.20;13.23;;;8.70;99.90;;;;;;4996016;28;20041;-75
2024/02/04 11:51:04;;;;;;;27.05;14.30;;;8.70;99.90;;;;;;5000776;28;20034;-75
2024/02/04 11:53:32;;;;;;;23.85;12.88;;;8.70;99.90;;;;;;4995024;28;20033;-76
2024/02/04 11:56:03;;;;;;;25.08;13.90;;;8.70;99.90;;;;;;4987608;28;20536;-76
2024/02/04 11:58:31;;;;;;;27.48;14.68;;;8.80;99.90;;;;;;5008935;28;20537;-76
2024/02/04 12:00:58;;;;;;;27.88;15.20;;;8.70;99.90;;;;;;4998838;28;20041;-76
2024/02/04 12:03:33;;;;;;;30.42;15.25;;;8.80;99.90;;;;;;4988816;28;20128;-76
2024/02/04 12:06:03;;;;;;;24.20;13.65;;;8.70;99.90;;;;;;4999107;28;20033;-78
2024/02/04 12:08:33;;;;;;;24.77;14.70;;;8.70;99.90;;;;;;5011889;28;20037;-77
2024/02/04 12:11:01;;;;;;;20.25;11.68;;;8.70;99.90;;;;;;4996383;28;20122;-79
2024/02/04 12:13:28;;;;;;;22.30;12.63;;;8.60;99.90;;;;;;5002955;28;20045;-78
2024/02/04 12:15:55;;;;;;;27.80;13.77;;;8.60;99.90;;;;;;4990793;28;20038;-78
2024/02/04 12:18:22;;;;;;;20.80;11.98;;;8.60;99.90;;;;;;4985858;28;20139;-78
2024/02/04 12:20:50;;;;;;;17.10;9.82;;;8.70;99.90;;;;;;4997016;28;20045;-78
2024/02/04 12:23:21;;;;;;;17.13;9.85;;;8.60;99.90;;;;;;4997152;28;20739;-78
2024/02/04 12:25:48;;;;;;;20.00;10.82;;;8.70;99.90;;;;;;4995590;28;20300;-77
2024/02/04 12:28:15;;;;;;;19.98;11.13;;;8.70;99.90;;;;;;5004634;28;20229;-76
2024/02/04 12:30:53;;;;;;;22.80;11.02;;;8.80;99.90;;;;;;4996639;28;20048;-76
2024/02/04 12:33:20;;;;;;;21.70;13.80;;;8.80;99.90;;;;;;5015265;28;20097;-76
2024/02/04 12:35:51;;;;;;;25.75;13.85;;;8.80;99.90;;;;;;5014497;28;20496;-75
2024/02/04 12:38:18;;;;;;;28.27;13.57;;;8.90;99.90;;;;;;4999824;28;20059;-76
2024/02/04 12:40:45;;;;;;;19.23;10.98;;;8.90;99.90;;;;;;4993145;28;20045;-75
2024/02/04 12:43:12;;;;;;;21.33;12.73;;;8.90;99.90;;;;;;4978973;28;21379;-76
2024/02/04 12:45:41;;;;;;;21.90;11.27;;;8.90;99.90;;;;;;4991700;28;20095;-75
2024/02/04 12:48:08;;;;;;;17.70;11.57;;;8.90;99.90;;;;;;5014973;28;20568;-76
2024/02/04 12:50:38;;;;;;;20.25;11.65;;;9.00;99.90;;;;;;4999762;28;20055;-75
2024/02/04 12:53:13;;;;;;;22.40;12.95;;;9.00;99.90;;;;;;5021205;28;20737;-74
2024/02/04 12:55:39;;;;;;;20.52;12.38;;;9.00;99.90;;;;;;5004531;28;20064;-75
2024/02/04 12:58:12;;;;;;;23.27;13.93;;;9.00;99.90;;;;;;5020223;28;20053;-75
2024/02/04 13:00:39;;;;;;;20.45;11.88;;;9.00;99.90;;;;;;4999568;28;20064;-75